createdAt,value
2022-10-01T00:00:05.490Z,12.63
2022-10-01T00:02:38.250Z,12.58
2022-10-01T00:05:07.261Z,12.59
2022-10-01T00:07:41.088Z,12.70
2022-10-01T00:10:08.523Z,12.65
2022-10-01T00:12:35.298Z,12.60
2022-10-01T00:15:05.996Z,12.71
2022-10-01T00:17:34.333Z,12.74
2022-10-01T00:20:01.103Z,12.81
2022-10-01T00:22:27.675Z,12.64
2022-10-01T00:24:54.148Z,12.66
2022-10-01T00:27:20.836Z,12.67
2022-10-01T00:29:47.273Z,12.75
2022-10-01T00:32:14.334Z,12.71
2022-10-01T00:34:41.100Z,12.86
2022-10-01T00:37:09.526Z,12.79
2022-10-01T00:39:36.981Z,12.73
2022-10-01T00:42:17.241Z,12.77
2022-10-01T00:44:44.413Z,12.75
2022-10-01T00:47:39.999Z,12.73
2022-10-01T00:50:12.550Z,12.75
2022-10-01T00:52:42.179Z,12.63
2022-10-01T00:55:19.561Z,12.55
2022-10-01T00:57:46.701Z,12.54
2022-10-01T01:00:14.198Z,12.50
2022-10-01T01:02:42.255Z,12.33
2022-10-01T01:05:13.594Z,12.41
2022-10-01T01:07:45.604Z,12.49
2022-10-01T01:10:15.091Z,12.44
2022-10-01T01:12:56.881Z,12.41
2022-10-01T01:15:55.621Z,12.37
2022-10-01T01:18:26.046Z,12.41
2022-10-01T01:21:13.301Z,12.47
2022-10-01T01:23:48.988Z,12.48
2022-10-01T01:26:29.524Z,12.54
2022-10-01T01:29:04.660Z,12.50
2022-10-01T01:31:38.556Z,12.56
2022-10-01T01:34:12.755Z,12.53
2022-10-01T01:36:44.390Z,12.46
2022-10-01T01:39:14.434Z,12.47
2022-10-01T01:41:50.763Z,12.47
2022-10-01T01:44:23.726Z,12.53
2022-10-01T01:46:51.864Z,12.53
2022-10-01T01:49:20.769Z,12.46
2022-10-01T01:52:04.716Z,12.48
2022-10-01T01:54:31.500Z,12.44
2022-10-01T01:56:58.890Z,12.46
2022-10-01T01:59:27.313Z,12.44
2022-10-01T02:01:54.030Z,12.52
2022-10-01T02:04:32.854Z,12.52
2022-10-01T02:07:15.116Z,12.49
2022-10-01T02:09:50.502Z,12.55
2022-10-01T02:12:35.534Z,12.55
2022-10-01T02:15:18.146Z,12.54
2022-10-01T02:17:58.336Z,12.57
2022-10-01T02:20:37.150Z,12.58
2022-10-01T02:23:10.119Z,12.55
2022-10-01T02:25:47.779Z,12.59
2022-10-01T02:28:19.483Z,12.55
2022-10-01T02:30:47.775Z,12.56
2022-10-01T02:33:18.813Z,12.63
2022-10-01T02:35:48.815Z,12.70
2022-10-01T02:38:16.957Z,12.65
2022-10-01T02:40:47.427Z,12.63
2022-10-01T02:43:18.998Z,12.74
2022-10-01T02:45:51.573Z,12.77
2022-10-01T02:48:18.450Z,12.70
2022-10-01T02:51:05.477Z,12.68
2022-10-01T02:53:39.980Z,12.68
2022-10-01T02:56:09.016Z,12.67
2022-10-01T02:58:36.367Z,12.69
2022-10-01T03:01:03.651Z,12.75
2022-10-01T03:03:31.029Z,12.71
2022-10-01T03:05:57.863Z,12.77
2022-10-01T03:08:24.606Z,12.79
2022-10-01T03:10:51.255Z,12.86
2022-10-01T03:13:19.865Z,12.86
2022-10-01T03:15:47.341Z,12.87
2022-10-01T03:18:14.185Z,12.92
2022-10-01T03:20:40.780Z,12.93
2022-10-01T03:23:08.495Z,12.94
2022-10-01T03:25:35.157Z,13.00
2022-10-01T03:28:01.945Z,12.96
2022-10-01T03:30:30.311Z,12.94
2022-10-01T03:32:57.165Z,13.08
2022-10-01T03:35:25.088Z,13.10
2022-10-01T03:37:51.678Z,13.04
2022-10-01T03:40:18.684Z,13.08
2022-10-01T03:42:45.202Z,13.12
2022-10-01T03:45:13.128Z,13.12
2022-10-01T03:47:39.870Z,13.16
2022-10-01T03:50:06.964Z,13.18
2022-10-01T03:52:33.520Z,13.30
2022-10-01T03:55:00.767Z,13.21
2022-10-01T03:57:27.357Z,13.19
2022-10-01T03:59:54.050Z,13.24
2022-10-01T04:02:22.073Z,13.33
2022-10-01T04:04:48.664Z,13.32
2022-10-01T04:07:15.466Z,13.40
2022-10-01T04:09:42.000Z,13.45
2022-10-01T04:12:09.510Z,13.46
2022-10-01T04:14:36.553Z,13.45
2022-10-01T04:17:03.159Z,13.56
2022-10-01T04:19:29.772Z,13.62
2022-10-01T04:21:56.559Z,13.58
2022-10-01T04:24:23.056Z,13.53
2022-10-01T04:26:51.020Z,13.63
2022-10-01T04:29:17.748Z,13.59
2022-10-01T04:31:44.279Z,13.67
2022-10-01T04:34:10.966Z,13.77
2022-10-01T04:36:37.779Z,13.71
2022-10-01T04:39:04.645Z,13.81
2022-10-01T04:41:32.318Z,13.86
2022-10-01T04:43:59.859Z,13.81
2022-10-01T04:46:27.636Z,13.86
2022-10-01T04:48:54.253Z,13.87
2022-10-01T04:51:20.737Z,13.90
2022-10-01T04:53:47.367Z,13.96
2022-10-01T04:56:13.868Z,13.95
2022-10-01T04:58:41.260Z,13.98
2022-10-01T05:01:07.833Z,13.95
2022-10-01T05:03:34.563Z,13.98
2022-10-01T05:06:01.158Z,13.95
2022-10-01T05:08:27.666Z,14.06
2022-10-01T05:10:54.275Z,14.03
2022-10-01T05:13:20.781Z,14.09
2022-10-01T05:15:49.288Z,14.17
2022-10-01T05:18:15.878Z,14.12
2022-10-01T05:20:42.814Z,14.18
2022-10-01T05:23:09.327Z,14.17
2022-10-01T05:25:36.237Z,14.20
2022-10-01T05:28:05.397Z,14.16
2022-10-01T05:30:33.262Z,14.25
2022-10-01T05:33:02.700Z,14.22
2022-10-01T05:35:30.588Z,14.33
2022-10-01T05:38:01.367Z,14.26
2022-10-01T05:40:29.129Z,14.25
2022-10-01T05:42:56.958Z,14.26
2022-10-01T05:45:24.410Z,14.24
2022-10-01T05:48:02.571Z,14.20
2022-10-01T05:50:33.953Z,14.23
2022-10-01T05:53:02.200Z,14.31
2022-10-01T05:55:34.455Z,14.32
2022-10-01T05:58:03.729Z,14.27
2022-10-01T06:00:31.111Z,14.28
2022-10-01T06:02:59.429Z,14.32
2022-10-01T06:05:27.342Z,14.40
2022-10-01T06:07:54.549Z,14.31
2022-10-01T06:10:22.344Z,14.21
2022-10-01T06:12:49.684Z,14.06
2022-10-01T06:15:17.754Z,14.02
2022-10-01T06:17:48.022Z,13.97
2022-10-01T06:20:17.156Z,13.97
2022-10-01T06:22:44.196Z,14.00
2022-10-01T06:25:15.650Z,14.12
2022-10-01T06:27:42.312Z,14.38
2022-10-01T06:30:09.591Z,14.54
2022-10-01T06:32:36.573Z,14.58
2022-10-01T06:35:04.118Z,14.61
2022-10-01T06:37:36.857Z,14.59
2022-10-01T06:40:04.253Z,14.57
2022-10-01T06:42:30.882Z,14.54
2022-10-01T06:44:57.395Z,14.58
2022-10-01T06:47:24.028Z,14.53
2022-10-01T06:49:50.841Z,14.59
2022-10-01T06:52:36.008Z,14.69
2022-10-01T06:55:03.053Z,14.68
2022-10-01T06:57:29.836Z,14.82
2022-10-01T06:59:57.838Z,14.90
2022-10-01T07:02:28.831Z,15.02
2022-10-01T07:04:59.377Z,15.19
2022-10-01T07:07:35.408Z,15.51
2022-10-01T07:10:04.262Z,15.65
2022-10-01T07:12:31.084Z,15.76
2022-10-01T07:14:57.625Z,15.72
2022-10-01T07:17:24.319Z,15.60
2022-10-01T07:19:50.857Z,15.56
2022-10-01T07:22:19.318Z,15.48
2022-10-01T07:24:46.680Z,15.38
2022-10-01T07:27:14.209Z,15.26
2022-10-01T07:29:41.845Z,15.25
2022-10-01T07:32:10.347Z,15.19
2022-10-01T07:34:42.604Z,15.18
2022-10-01T07:37:09.879Z,15.21
2022-10-01T07:39:37.261Z,15.18
2022-10-01T07:42:04.344Z,15.19
2022-10-01T07:44:30.903Z,15.22
2022-10-01T07:46:57.946Z,15.14
2022-10-01T07:49:25.252Z,15.24
2022-10-01T07:51:54.329Z,15.25
2022-10-01T07:54:22.427Z,15.42
2022-10-01T07:56:52.890Z,15.52
2022-10-01T07:59:19.635Z,15.72
2022-10-01T08:01:52.001Z,15.88
2022-10-01T08:04:38.776Z,15.92
2022-10-01T08:07:08.181Z,15.96
2022-10-01T08:09:36.078Z,15.98
2022-10-01T08:12:02.986Z,16.03
2022-10-01T08:14:30.510Z,16.08
2022-10-01T08:16:57.713Z,15.93
2022-10-01T08:19:25.213Z,16.12
2022-10-01T08:21:52.750Z,15.91
2022-10-01T08:24:20.007Z,15.99
2022-10-01T08:26:52.216Z,15.98
2022-10-01T08:29:19.523Z,16.19
2022-10-01T08:31:46.324Z,16.33
2022-10-01T08:34:13.034Z,16.23
2022-10-01T08:36:39.580Z,16.01
2022-10-01T08:39:06.149Z,15.96
2022-10-01T08:41:58.811Z,15.81
2022-10-01T08:44:41.170Z,15.96
2022-10-01T08:47:22.206Z,16.07
2022-10-01T08:49:53.641Z,16.25
2022-10-01T08:52:31.735Z,16.53
2022-10-01T08:55:02.084Z,16.73
2022-10-01T08:57:32.870Z,16.84
2022-10-01T09:00:03.773Z,16.90
2022-10-01T09:02:38.016Z,17.06
2022-10-01T09:05:11.128Z,17.05
2022-10-01T09:07:50.085Z,17.19
2022-10-01T09:10:25.828Z,17.19
2022-10-01T09:13:43.996Z,17.26
2022-10-01T09:16:22.471Z,17.17
2022-10-01T09:19:00.882Z,17.20
2022-10-01T09:21:56.601Z,17.73
2022-10-01T09:24:46.869Z,17.71
2022-10-01T09:27:19.137Z,17.73
2022-10-01T09:29:57.914Z,18.09
2022-10-01T09:32:34.384Z,18.33
2022-10-01T09:35:11.321Z,17.98
2022-10-01T09:38:11.496Z,18.30
2022-10-01T09:40:53.464Z,18.30
2022-10-01T09:43:23.064Z,18.45
2022-10-01T09:45:51.594Z,18.65
2022-10-01T09:48:21.553Z,18.70
2022-10-01T09:50:58.254Z,18.72
2022-10-01T09:53:52.498Z,18.88
2022-10-01T09:56:29.697Z,18.81
2022-10-01T09:59:01.857Z,19.03
2022-10-01T10:01:49.710Z,19.37
2022-10-01T10:04:21.349Z,19.15
2022-10-01T10:06:48.197Z,19.37
2022-10-01T10:09:17.452Z,19.61
2022-10-01T10:11:44.828Z,19.29
2022-10-01T10:14:18.066Z,19.20
2022-10-01T10:16:48.583Z,19.40
2022-10-01T10:19:25.827Z,19.61
2022-10-01T10:21:56.636Z,19.34
2022-10-01T10:24:31.128Z,19.14
2022-10-01T10:26:59.309Z,19.07
2022-10-01T10:29:30.478Z,19.25
2022-10-01T10:31:58.895Z,18.89
2022-10-01T10:34:31.958Z,18.38
2022-10-01T10:37:05.664Z,18.23
2022-10-01T10:39:39.283Z,17.89
2022-10-01T10:42:07.433Z,17.86
2022-10-01T10:44:39.470Z,17.71
2022-10-01T10:47:14.722Z,17.75
2022-10-01T10:49:48.692Z,17.79
2022-10-01T10:52:36.518Z,17.94
2022-10-01T10:55:23.844Z,18.14
2022-10-01T10:57:54.394Z,18.37
2022-10-01T11:00:25.932Z,18.54
2022-10-01T11:03:05.565Z,18.85
2022-10-01T11:05:41.426Z,19.05
2022-10-01T11:08:17.833Z,19.09
2022-10-01T11:14:23.863Z,19.83
2022-10-01T11:17:12.480Z,20.50
2022-10-01T11:20:01.141Z,20.71
2022-10-01T11:22:47.769Z,20.53
2022-10-01T11:25:20.028Z,20.50
2022-10-01T11:27:52.831Z,19.86
2022-10-01T11:30:26.453Z,19.40
2022-10-01T11:33:00.542Z,19.33
2022-10-01T11:35:55.500Z,19.20
2022-10-01T11:39:02.859Z,19.12
2022-10-01T11:42:11.523Z,19.04
2022-10-01T11:44:51.010Z,19.01
2022-10-01T11:47:31.383Z,18.97
2022-10-01T11:50:03.045Z,18.95
2022-10-01T11:52:44.170Z,19.12
2022-10-01T11:55:36.839Z,19.28
2022-10-01T11:58:46.411Z,19.29
2022-10-01T12:01:53.158Z,19.72
2022-10-01T12:04:34.806Z,19.88
2022-10-01T12:07:04.410Z,19.86
2022-10-01T12:09:37.087Z,19.77
2022-10-01T12:12:35.832Z,19.94
2022-10-01T12:15:16.941Z,19.88
2022-10-01T12:17:45.706Z,19.95
2022-10-01T12:20:23.128Z,19.67
2022-10-01T12:22:52.862Z,19.52
2022-10-01T12:25:26.256Z,19.34
2022-10-01T12:27:53.461Z,19.15
2022-10-01T12:30:29.225Z,19.08
2022-10-01T12:32:58.868Z,19.17
2022-10-01T12:35:28.625Z,19.51
2022-10-01T12:38:10.442Z,19.67
2022-10-01T12:40:48.803Z,20.10
2022-10-01T12:43:36.825Z,20.21
2022-10-01T12:46:17.232Z,20.34
2022-10-01T12:49:22.237Z,20.37
2022-10-01T12:52:11.276Z,20.38
2022-10-01T12:54:56.565Z,20.16
2022-10-01T12:57:45.148Z,20.28
2022-10-01T13:00:41.377Z,20.52
2022-10-01T13:03:37.388Z,20.59
2022-10-01T13:06:09.863Z,20.79
2022-10-01T13:08:51.658Z,20.35
2022-10-01T13:11:24.317Z,20.32
2022-10-01T13:13:52.514Z,20.13
2022-10-01T13:16:46.731Z,20.08
2022-10-01T13:19:30.547Z,20.07
2022-10-01T13:22:09.027Z,20.06
2022-10-01T13:24:47.991Z,20.44
2022-10-01T13:27:21.140Z,20.25
2022-10-01T13:29:59.943Z,20.23
2022-10-01T13:32:51.660Z,20.46
2022-10-01T13:35:52.926Z,20.72
2022-10-01T13:38:38.299Z,20.58
2022-10-01T13:41:16.714Z,20.54
2022-10-01T13:43:56.805Z,20.28
2022-10-01T13:46:26.573Z,20.08
2022-10-01T13:48:54.190Z,19.85
2022-10-01T13:51:21.055Z,19.67
2022-10-01T13:53:56.087Z,19.59
2022-10-01T13:56:36.870Z,19.13
2022-10-01T13:59:35.731Z,18.86
2022-10-01T14:02:03.194Z,18.85
2022-10-01T14:04:45.440Z,18.95
2022-10-01T14:07:12.343Z,18.92
2022-10-01T14:09:52.167Z,18.94
2022-10-01T14:12:49.436Z,18.88
2022-10-01T14:15:44.369Z,18.97
2022-10-01T14:18:17.441Z,18.72
2022-10-01T14:21:21.432Z,18.47
2022-10-01T14:23:59.882Z,18.37
2022-10-01T14:26:37.498Z,18.44
2022-10-01T14:29:34.885Z,18.59
2022-10-01T14:32:23.302Z,18.51
2022-10-01T14:35:20.692Z,18.64
2022-10-01T14:37:47.724Z,18.67
2022-10-01T14:40:17.615Z,18.71
2022-10-01T14:42:45.464Z,18.67
2022-10-01T14:45:18.619Z,18.59
2022-10-01T14:47:45.640Z,18.63
2022-10-01T14:50:19.598Z,18.64
2022-10-01T14:52:51.008Z,18.62
2022-10-01T14:55:22.785Z,18.35
2022-10-01T14:57:53.754Z,18.24
2022-10-01T15:00:26.500Z,18.21
2022-10-01T15:03:15.550Z,18.16
2022-10-01T15:05:43.459Z,18.06
2022-10-01T15:08:14.125Z,17.81
2022-10-01T15:10:45.524Z,18.05
2022-10-01T15:13:27.822Z,18.03
2022-10-01T15:15:55.939Z,18.14
2022-10-01T15:18:23.705Z,18.08
2022-10-01T15:21:15.088Z,18.20
2022-10-01T15:23:42.121Z,18.17
2022-10-01T15:26:13.527Z,18.10
2022-10-01T15:28:40.142Z,18.10
2022-10-01T15:31:07.690Z,18.10
2022-10-01T15:33:37.875Z,17.95
2022-10-01T15:36:11.483Z,17.96
2022-10-01T15:38:39.173Z,18.00
2022-10-01T15:41:30.026Z,17.86
2022-10-01T15:43:57.236Z,17.89
2022-10-01T15:46:33.224Z,17.89
2022-10-01T15:49:16.548Z,17.82
2022-10-01T15:52:22.550Z,17.73
2022-10-01T15:54:58.985Z,17.66
2022-10-01T15:57:28.179Z,17.70
2022-10-01T15:59:56.771Z,17.57
2022-10-01T16:02:30.733Z,17.59
2022-10-01T16:05:05.385Z,17.52
2022-10-01T16:07:34.813Z,17.46
2022-10-01T16:10:32.808Z,17.46
2022-10-01T16:12:59.939Z,17.36
2022-10-01T16:15:28.821Z,17.36
2022-10-01T16:18:02.478Z,17.23
2022-10-01T16:20:45.654Z,17.33
2022-10-01T16:23:39.711Z,17.23
2022-10-01T16:26:33.790Z,17.19
2022-10-01T16:29:16.470Z,17.22
2022-10-01T16:31:44.665Z,17.20
2022-10-01T16:34:16.725Z,17.16
2022-10-01T16:36:44.014Z,17.05
2022-10-01T16:39:13.620Z,16.97
2022-10-01T16:41:40.683Z,16.98
2022-10-01T16:44:07.406Z,16.94
2022-10-01T16:46:34.492Z,16.83
2022-10-01T16:49:01.099Z,16.76
2022-10-01T16:51:28.428Z,16.78
2022-10-01T16:53:55.018Z,16.67
2022-10-01T16:56:26.879Z,16.70
2022-10-01T16:58:54.535Z,16.64
2022-10-01T17:01:21.154Z,16.49
2022-10-01T17:03:47.720Z,16.41
2022-10-01T17:06:14.674Z,16.36
2022-10-01T17:08:41.828Z,16.17
2022-10-01T17:11:12.648Z,15.98
2022-10-01T17:13:39.496Z,15.93
2022-10-01T17:16:06.434Z,15.98
2022-10-01T17:18:33.294Z,16.04
2022-10-01T17:21:03.540Z,15.93
2022-10-01T17:23:30.134Z,15.78
2022-10-01T17:25:56.708Z,15.80
2022-10-01T17:28:24.331Z,15.78
2022-10-01T17:30:51.334Z,15.84
2022-10-01T17:33:19.583Z,15.71
2022-10-01T17:35:51.600Z,15.60
2022-10-01T17:38:19.220Z,15.47
2022-10-01T17:40:46.071Z,15.45
2022-10-01T17:43:15.718Z,15.40
2022-10-01T17:45:43.457Z,15.32
2022-10-01T17:48:10.126Z,15.39
2022-10-01T17:50:44.365Z,15.31
2022-10-01T17:53:12.328Z,15.18
2022-10-01T17:55:43.127Z,15.16
2022-10-01T17:58:09.989Z,15.14
2022-10-01T18:00:37.210Z,15.10
2022-10-01T18:03:04.152Z,15.08
2022-10-01T18:05:30.679Z,14.99
2022-10-01T18:07:57.199Z,14.92
2022-10-01T18:10:23.699Z,14.87
2022-10-01T18:12:50.523Z,14.81
2022-10-01T18:15:20.223Z,14.77
2022-10-01T18:17:51.447Z,14.79
2022-10-01T18:20:23.471Z,14.84
2022-10-01T18:22:50.489Z,14.69
2022-10-01T18:25:19.226Z,14.57
2022-10-01T18:27:50.086Z,14.55
2022-10-01T18:30:17.690Z,14.39
2022-10-01T18:32:48.473Z,14.38
2022-10-01T18:35:33.672Z,14.36
2022-10-01T18:38:20.571Z,14.37
2022-10-01T18:40:56.718Z,14.35
2022-10-01T18:43:25.330Z,14.31
2022-10-01T18:46:12.470Z,14.32
2022-10-01T18:48:48.727Z,14.24
2022-10-01T18:51:26.483Z,14.22
2022-10-01T18:53:56.048Z,14.22
2022-10-01T18:56:33.790Z,14.20
2022-10-01T18:59:20.924Z,14.16
2022-10-01T19:01:50.295Z,14.22
2022-10-01T19:04:28.722Z,14.22
2022-10-01T19:07:29.383Z,14.18
2022-10-01T19:10:39.143Z,14.10
2022-10-01T19:13:28.650Z,13.99
2022-10-01T19:16:14.169Z,14.06
2022-10-01T19:19:11.483Z,14.06
2022-10-01T19:22:06.221Z,13.96
2022-10-01T19:24:57.987Z,13.90
2022-10-01T19:28:02.546Z,13.97
2022-10-01T19:30:34.841Z,13.91
2022-10-01T19:33:05.059Z,13.85
2022-10-01T19:35:34.399Z,13.97
2022-10-01T19:38:11.196Z,13.88
2022-10-01T19:40:46.377Z,13.88
2022-10-01T19:43:33.493Z,13.90
2022-10-01T19:46:15.225Z,13.89
2022-10-01T19:48:50.976Z,14.06
2022-10-01T19:51:32.373Z,14.16
2022-10-01T19:54:01.925Z,14.20
2022-10-01T19:56:31.629Z,14.36
2022-10-01T19:59:01.516Z,14.33
2022-10-01T20:01:38.421Z,14.28
2022-10-01T20:04:34.200Z,14.45
2022-10-01T20:07:09.835Z,14.44
2022-10-01T20:09:51.449Z,14.36
2022-10-01T20:12:33.426Z,14.35
2022-10-01T20:15:19.923Z,14.34
2022-10-01T20:18:28.115Z,14.29
2022-10-01T20:21:30.693Z,14.23
2022-10-01T20:24:28.791Z,14.30
2022-10-01T20:27:07.167Z,14.33
2022-10-01T20:29:46.708Z,14.27
2022-10-01T20:32:27.152Z,14.28
2022-10-01T20:35:35.662Z,14.33
2022-10-01T20:38:20.537Z,14.27
2022-10-01T20:40:54.377Z,14.22
2022-10-01T20:43:37.085Z,14.24
2022-10-01T20:46:19.592Z,14.18
2022-10-01T20:48:57.986Z,14.22
2022-10-01T20:51:36.288Z,14.25
2022-10-01T20:54:09.252Z,14.20
2022-10-01T20:56:44.218Z,14.16
2022-10-01T20:59:21.404Z,14.14
2022-10-01T21:02:02.402Z,14.16
2022-10-01T21:04:34.300Z,14.11
2022-10-01T21:07:14.272Z,14.09
2022-10-01T21:09:46.226Z,14.07
2022-10-01T21:12:35.010Z,14.09
2022-10-01T21:15:02.379Z,14.05
2022-10-01T21:17:58.382Z,14.04
2022-10-01T21:20:47.621Z,14.07
2022-10-01T21:23:29.706Z,14.02
2022-10-01T21:26:15.998Z,13.91
2022-10-01T21:29:27.060Z,13.94
2022-10-01T21:32:22.894Z,13.94
2022-10-01T21:34:56.278Z,13.95
2022-10-01T21:37:30.597Z,13.90
2022-10-01T21:40:26.532Z,13.98
2022-10-01T21:43:07.529Z,13.97
2022-10-01T21:45:50.520Z,13.90
2022-10-01T21:48:36.205Z,13.83
2022-10-01T21:51:15.098Z,13.88
2022-10-01T21:53:58.012Z,13.81
2022-10-01T21:56:37.331Z,13.87
2022-10-01T21:59:54.210Z,13.75
2022-10-01T22:02:27.406Z,13.77
2022-10-01T22:05:03.166Z,13.76
2022-10-01T22:07:43.166Z,13.77
2022-10-01T22:10:19.372Z,13.75
2022-10-01T22:12:54.197Z,13.83
2022-10-01T22:15:30.815Z,13.80
2022-10-01T22:17:59.763Z,13.78
2022-10-01T22:20:29.498Z,13.82
2022-10-01T22:23:01.276Z,13.79
2022-10-01T22:25:30.432Z,13.82
2022-10-01T22:28:03.441Z,13.79
2022-10-01T22:30:34.326Z,13.71
2022-10-01T22:33:12.735Z,13.73
2022-10-01T22:35:41.121Z,13.70
2022-10-01T22:38:18.753Z,13.73
2022-10-01T22:40:50.055Z,13.74
2022-10-01T22:43:17.271Z,13.83
2022-10-01T22:45:54.847Z,13.82
2022-10-01T22:48:21.374Z,13.85
2022-10-01T22:50:56.347Z,13.98
2022-10-01T22:53:44.953Z,13.99
2022-10-01T22:56:19.321Z,14.07
2022-10-01T22:59:13.614Z,14.10
2022-10-01T23:01:58.995Z,14.16
2022-10-01T23:04:31.967Z,14.20
2022-10-01T23:07:11.975Z,14.17
2022-10-01T23:09:57.038Z,14.14
2022-10-01T23:12:29.845Z,14.14
2022-10-01T23:15:16.630Z,14.09
2022-10-01T23:18:19.913Z,14.18
2022-10-01T23:21:08.236Z,14.23
2022-10-01T23:23:34.923Z,14.22
2022-10-01T23:26:18.511Z,14.20
2022-10-01T23:29:02.576Z,14.20
2022-10-01T23:31:50.361Z,14.17
2022-10-01T23:34:47.460Z,14.14
2022-10-01T23:37:42.099Z,14.09
2022-10-01T23:40:13.089Z,14.02
2022-10-01T23:42:58.505Z,14.05
2022-10-01T23:45:42.399Z,13.92
2022-10-01T23:48:33.917Z,13.88
2022-10-01T23:51:20.719Z,13.83
2022-10-01T23:53:59.906Z,13.83
2022-10-01T23:56:50.955Z,13.84
2022-10-01T23:59:45.275Z,13.88
